Interior, SD (57750)

8:46 AM MST on December 03, 2016 (GMT -0700)
| | Change Station

Elev -9999 ft 0.00 °N, 0.00 °E | Updated

Clear
Clear
38 °F
Feels Like 29 °F
N
13
Wind Variable Wind from SW
Gusts 21 mph

Today
High -- | Low -- °F
--% Chance of Precip.
Yesterday
High -- | Low -- °F
Precip. -- in
Pressure 30.04 in
Visibility 10.0 miles
Clouds Clear
Windchill 29 °F
Dew Point 25 °F
Humidity 59%
Rainfall --
Snow Depth Not available.
7:04 AM 4:11 PM
Waxing Crescent, 15% visible
METAR KPHP 031455Z AUTO VRB05KT 10SM CLR M03/M04 A2996 RMK AO2 SLP171 T10281044 56021
Pressure 30.04 in
Visibility 10.0 miles
Clouds Clear
Windchill 29 °F
Dew Point 25 °F
Humidity 59%
Rainfall --
Snow Depth Not available.
7:04 AM 4:11 PM
Waxing Crescent, 15% visible
METAR KPHP 031455Z AUTO VRB05KT 10SM CLR M03/M04 A2996 RMK AO2 SLP171 T10281044 56021

10-Day Weather Forecast

Almanac

Astronomy

Dec. 03, 2016 Rise Set
Actual Time
Civil Twilight
Nautical Twilight
Astronomical Twilight
Moon
Length of Visible Light
Length of Day
Tomorrow will be .
, % of the Moon is Illuminated

Today's Extremes

State Highs State Lows

Community

WunderPhotos

Upload Photos

1,955,427 photos uploaded!

WunderBlog® & News

Nearby

Air Quality

  Air Quality AQ Index Pollutant
Not available.

Snow Depth

Station Depth Elevation

Earthquake Activity

City Distance Mag. Time & Date
Minimum magnitude displayed is 2.5.

Coastal Water Temperatures

Place Temperature

Stations

Nearby Weather Stations

Station Location Temp. Windchill Dew Point Humidity Wind Precip. Elev Updated Type
                   

Watches & Warnings

There are currently no watches in effect.